createdAt,value
2019-05-09T00:01:35.153Z,3.60
2019-05-09T00:04:04.451Z,2.40
2019-05-09T00:06:34.432Z,3.90
2019-05-09T00:09:05.395Z,4.27
2019-05-09T00:11:34.927Z,2.30
2019-05-09T00:14:04.720Z,4.57
2019-05-09T00:16:34.243Z,2.50
2019-05-09T00:19:03.896Z,2.60
2019-05-09T00:21:38.855Z,3.13
2019-05-09T00:24:08.324Z,3.67
2019-05-09T00:26:37.866Z,2.43
2019-05-09T00:29:14.076Z,4.17
2019-05-09T00:32:08.741Z,6.07
2019-05-09T00:34:48.599Z,7.30
2019-05-09T00:37:18.477Z,5.90
2019-05-09T00:39:48.027Z,4.83
2019-05-09T00:42:17.574Z,8.20
2019-05-09T00:44:49.516Z,6.27
2019-05-09T00:47:27.078Z,5.53
2019-05-09T00:49:56.386Z,4.23
2019-05-09T00:52:25.947Z,3.33
2019-05-09T00:54:55.595Z,4.20
2019-05-09T00:57:33.741Z,4.77
2019-05-09T01:00:06.268Z,3.20
2019-05-09T01:02:35.840Z,3.80
2019-05-09T01:05:05.379Z,9.47
2019-05-09T01:07:35.270Z,3.47
2019-05-09T01:10:04.658Z,5.97
2019-05-09T01:12:34.193Z,4.33
2019-05-09T01:15:03.622Z,4.30
2019-05-09T01:17:33.510Z,4.47
2019-05-09T01:20:03.602Z,3.50
2019-05-09T01:22:33.357Z,4.23
2019-05-09T01:25:04.203Z,3.47
2019-05-09T01:27:34.077Z,4.97
2019-05-09T01:30:04.611Z,11.13
2019-05-09T01:32:53.928Z,4.53
2019-05-09T01:35:23.354Z,7.07
2019-05-09T01:37:53.926Z,5.00
2019-05-09T01:40:23.949Z,5.77
2019-05-09T01:42:53.881Z,4.13
2019-05-09T01:45:23.797Z,5.53
2019-05-09T01:47:53.937Z,4.80
2019-05-09T01:50:23.388Z,6.13
2019-05-09T01:52:53.327Z,6.10
2019-05-09T01:55:25.930Z,3.63
2019-05-09T01:57:55.428Z,3.43
2019-05-09T02:00:25.098Z,5.80
2019-05-09T02:02:54.369Z,9.83
2019-05-09T02:05:24.154Z,8.13
2019-05-09T02:07:54.225Z,7.60
2019-05-09T02:10:23.799Z,7.17
2019-05-09T02:12:53.840Z,4.03
2019-05-09T02:15:35.735Z,4.93
2019-05-09T02:18:14.383Z,4.23
2019-05-09T02:20:44.079Z,3.83
2019-05-09T02:23:14.016Z,4.47
2019-05-09T02:25:43.900Z,4.60
2019-05-09T02:28:14.204Z,5.97
2019-05-09T02:30:45.045Z,5.33
2019-05-09T02:33:15.466Z,8.40
2019-05-09T02:35:52.871Z,6.00
2019-05-09T02:38:15.860Z,7.30
2019-05-09T02:40:45.115Z,3.83
2019-05-09T02:43:14.785Z,5.30
2019-05-09T02:45:52.790Z,6.53
2019-05-09T02:48:22.101Z,7.10
2019-05-09T02:50:51.555Z,13.90
2019-05-09T02:53:21.021Z,10.50
2019-05-09T02:55:50.357Z,5.60
2019-05-09T02:58:22.122Z,5.37
2019-05-09T03:01:08.220Z,7.70
2019-05-09T03:03:39.384Z,7.30
2019-05-09T03:06:09.415Z,7.00
2019-05-09T03:08:38.772Z,6.83
2019-05-09T03:11:09.814Z,9.00
2019-05-09T03:13:39.618Z,7.20
2019-05-09T03:16:13.179Z,7.40
2019-05-09T03:18:42.564Z,7.90
2019-05-09T03:21:29.379Z,8.40
2019-05-09T03:23:59.435Z,11.43
2019-05-09T03:26:32.548Z,6.87
2019-05-09T03:29:13.867Z,8.77
2019-05-09T03:31:43.781Z,9.07
2019-05-09T03:34:13.047Z,6.50
2019-05-09T03:36:42.598Z,8.00
2019-05-09T03:39:12.012Z,7.97
2019-05-09T03:41:41.266Z,6.67
2019-05-09T03:44:10.929Z,9.83
2019-05-09T03:47:11.410Z,8.63
2019-05-09T03:49:40.780Z,5.87
2019-05-09T03:52:10.359Z,6.20
2019-05-09T03:54:39.647Z,5.27
2019-05-09T03:57:28.614Z,7.53
2019-05-09T03:59:58.304Z,9.83
2019-05-09T04:02:28.187Z,7.57
2019-05-09T04:04:58.222Z,7.70
2019-05-09T04:07:28.001Z,8.93
2019-05-09T04:09:59.211Z,12.23
2019-05-09T04:12:28.483Z,8.93
2019-05-09T04:14:58.472Z,6.33
2019-05-09T04:17:43.143Z,18.70
2019-05-09T04:20:13.843Z,6.37
2019-05-09T04:22:43.155Z,7.27
2019-05-09T04:25:17.972Z,4.93
2019-05-09T04:27:48.196Z,6.20
2019-05-09T04:30:18.323Z,6.50
2019-05-09T04:32:48.250Z,7.90
2019-05-09T04:35:17.850Z,8.17
2019-05-09T04:37:48.244Z,9.90
2019-05-09T04:40:18.022Z,8.97
2019-05-09T04:42:47.528Z,7.07
2019-05-09T04:45:37.513Z,10.47
2019-05-09T04:48:03.475Z,6.83
2019-05-09T04:50:32.867Z,6.27
2019-05-09T04:53:02.479Z,7.20
2019-05-09T04:55:33.377Z,7.83
2019-05-09T04:58:02.976Z,8.03
2019-05-09T05:00:54.099Z,5.60
2019-05-09T05:03:23.386Z,7.37
2019-05-09T05:05:52.988Z,10.20
2019-05-09T05:08:22.315Z,5.73
2019-05-09T05:10:51.896Z,6.70
2019-05-09T05:13:26.307Z,5.13
2019-05-09T05:15:52.560Z,6.97
2019-05-09T05:18:22.137Z,5.03
2019-05-09T05:20:52.089Z,6.33
2019-05-09T05:23:27.692Z,7.37
2019-05-09T05:25:58.012Z,8.03
2019-05-09T05:28:27.910Z,6.50
2019-05-09T05:30:58.270Z,5.93
2019-05-09T05:33:57.749Z,6.67
2019-05-09T05:36:27.993Z,12.87
2019-05-09T05:38:58.505Z,5.00
2019-05-09T05:41:28.549Z,10.37
2019-05-09T05:43:58.293Z,6.13
2019-05-09T05:46:34.740Z,7.17
2019-05-09T05:49:04.238Z,6.47
2019-05-09T05:51:49.400Z,13.50
2019-05-09T05:54:20.488Z,7.83
2019-05-09T05:56:49.940Z,13.07
2019-05-09T05:59:19.640Z,7.73
2019-05-09T06:01:49.213Z,6.80
2019-05-09T06:04:18.932Z,6.77
2019-05-09T06:06:48.507Z,7.23
2019-05-09T06:09:19.127Z,10.60
2019-05-09T06:11:48.860Z,6.40
2019-05-09T06:14:18.788Z,10.20
2019-05-09T06:16:48.865Z,4.87
2019-05-09T06:19:18.387Z,3.63
2019-05-09T06:21:49.276Z,6.07
2019-05-09T06:24:18.926Z,4.07
2019-05-09T06:26:48.925Z,13.17
2019-05-09T06:29:18.548Z,7.50
2019-05-09T06:31:48.575Z,8.97
2019-05-09T06:34:18.720Z,6.37
2019-05-09T06:36:49.122Z,6.70
2019-05-09T06:39:18.774Z,8.63
2019-05-09T06:41:48.555Z,7.27
2019-05-09T06:44:37.501Z,12.23
2019-05-09T06:47:15.081Z,5.97
2019-05-09T06:49:49.850Z,7.70
2019-05-09T06:52:18.311Z,8.07
2019-05-09T06:54:48.634Z,11.67
2019-05-09T06:57:18.711Z,5.47
2019-05-09T06:59:48.902Z,7.83
2019-05-09T07:02:43.670Z,5.97
2019-05-09T07:05:32.899Z,12.63
2019-05-09T07:08:10.228Z,6.33
2019-05-09T07:10:39.579Z,5.17
2019-05-09T07:13:09.222Z,5.53
2019-05-09T07:15:38.841Z,7.80
2019-05-09T07:18:08.318Z,1.93
2019-05-09T07:20:38.284Z,6.53
2019-05-09T07:23:09.052Z,11.27
2019-05-09T07:25:58.207Z,4.03
2019-05-09T07:28:28.647Z,4.83
2019-05-09T07:31:17.758Z,7.13
2019-05-09T07:34:15.588Z,6.83
2019-05-09T07:36:44.920Z,3.40
2019-05-09T07:39:14.200Z,7.60
2019-05-09T07:41:43.800Z,8.13
2019-05-09T07:44:13.677Z,7.30
2019-05-09T07:47:11.577Z,9.00
2019-05-09T07:49:41.587Z,5.50
2019-05-09T07:52:10.860Z,5.23
2019-05-09T07:54:40.148Z,8.07
2019-05-09T07:57:09.923Z,8.30
2019-05-09T07:59:39.290Z,8.57
2019-05-09T08:02:08.968Z,4.57
2019-05-09T08:04:38.720Z,8.33
2019-05-09T08:07:08.549Z,2.33
2019-05-09T08:09:38.896Z,8.17
2019-05-09T08:12:08.577Z,4.77
2019-05-09T08:14:38.171Z,4.93
2019-05-09T08:17:08.577Z,12.30
2019-05-09T08:19:38.260Z,5.83
2019-05-09T08:22:08.092Z,7.63
2019-05-09T08:24:38.196Z,4.37
2019-05-09T08:27:08.594Z,5.80
2019-05-09T08:29:38.848Z,1.53
2019-05-09T08:32:09.119Z,8.20
2019-05-09T08:34:38.727Z,5.53
2019-05-09T08:37:08.320Z,3.53
2019-05-09T08:39:38.478Z,1.63
2019-05-09T08:42:08.716Z,4.30
2019-05-09T08:44:41.906Z,1.20
2019-05-09T08:47:09.353Z,3.53
2019-05-09T08:49:50.360Z,4.90
2019-05-09T08:52:20.144Z,4.87
2019-05-09T08:54:52.667Z,10.10
2019-05-09T08:57:22.309Z,4.43
2019-05-09T08:59:52.380Z,7.33
2019-05-09T09:02:22.570Z,5.93
2019-05-09T09:04:52.054Z,3.40
2019-05-09T09:07:21.791Z,5.23
2019-05-09T09:09:51.728Z,3.77
2019-05-09T09:12:30.379Z,2.37
2019-05-09T09:14:52.004Z,5.77
2019-05-09T09:17:21.826Z,4.53
2019-05-09T09:19:51.621Z,5.00
2019-05-09T09:22:20.898Z,4.53
2019-05-09T09:24:50.581Z,2.53
2019-05-09T09:27:20.146Z,2.90
2019-05-09T09:29:50.108Z,3.23
2019-05-09T09:32:19.410Z,3.20
2019-05-09T09:34:48.975Z,3.33
2019-05-09T09:37:18.677Z,5.13
2019-05-09T09:39:49.000Z,4.27
2019-05-09T09:42:19.944Z,3.43
2019-05-09T09:44:49.650Z,2.93
2019-05-09T09:47:23.114Z,4.10
2019-05-09T09:49:50.184Z,2.33
2019-05-09T09:52:19.471Z,6.20
2019-05-09T09:54:48.790Z,3.43
2019-05-09T09:57:19.020Z,5.57
2019-05-09T10:00:19.932Z,7.60
2019-05-09T10:02:49.498Z,7.67
2019-05-09T10:05:19.221Z,3.27
2019-05-09T10:07:52.858Z,4.77
2019-05-09T10:10:33.751Z,3.40
2019-05-09T10:13:04.320Z,5.27
2019-05-09T10:15:48.379Z,3.77
2019-05-09T10:18:28.273Z,5.07
2019-05-09T10:21:06.247Z,6.07
2019-05-09T10:23:37.848Z,4.53
2019-05-09T10:26:08.530Z,2.07
2019-05-09T10:28:45.489Z,1.03
2019-05-09T10:31:14.975Z,4.27
2019-05-09T10:33:44.331Z,3.73
2019-05-09T10:36:14.782Z,0.97
2019-05-09T10:38:44.078Z,1.07
2019-05-09T10:41:13.413Z,3.73
2019-05-09T10:44:08.470Z,2.37
2019-05-09T10:46:57.301Z,2.23
2019-05-09T10:49:21.571Z,1.30
2019-05-09T10:51:51.110Z,1.67
2019-05-09T10:54:21.221Z,3.43
2019-05-09T10:56:50.531Z,5.03
2019-05-09T10:59:19.848Z,1.20
2019-05-09T11:01:49.821Z,1.33
2019-05-09T11:04:19.452Z,4.47
2019-05-09T11:06:48.754Z,2.47
2019-05-09T11:09:18.485Z,3.07
2019-05-09T11:11:48.501Z,2.80
2019-05-09T11:14:32.208Z,3.57
2019-05-09T11:16:59.195Z,4.50
2019-05-09T11:19:20.969Z,5.17
2019-05-09T11:21:50.543Z,3.00
2019-05-09T11:24:20.322Z,3.37
2019-05-09T11:26:49.601Z,4.17
2019-05-09T11:29:20.704Z,8.90
2019-05-09T11:31:50.515Z,3.53
2019-05-09T11:34:20.585Z,3.57
2019-05-09T11:36:50.128Z,2.03
2019-05-09T11:39:35.170Z,4.13
2019-05-09T11:41:51.012Z,3.73
2019-05-09T11:44:20.802Z,1.80
2019-05-09T11:46:50.665Z,3.60
2019-05-09T11:49:19.973Z,1.10
2019-05-09T11:51:49.276Z,2.37
2019-05-09T11:54:19.449Z,2.20
2019-05-09T11:56:49.402Z,2.50
2019-05-09T11:59:19.094Z,4.40
2019-05-09T12:01:48.550Z,4.07
2019-05-09T12:04:18.687Z,1.97
2019-05-09T12:06:49.338Z,1.07
2019-05-09T12:09:19.536Z,4.10
2019-05-09T12:11:49.224Z,2.90
2019-05-09T12:14:18.679Z,3.67
2019-05-09T12:16:48.291Z,2.77
2019-05-09T12:19:18.173Z,5.17
2019-05-09T12:21:48.480Z,2.13
2019-05-09T12:24:18.709Z,8.47
2019-05-09T12:26:48.356Z,1.90
2019-05-09T12:29:19.611Z,0.90
2019-05-09T12:31:49.848Z,1.53
2019-05-09T12:34:19.561Z,5.40
2019-05-09T12:36:49.762Z,4.33
2019-05-09T12:39:19.553Z,3.77
2019-05-09T12:41:49.204Z,4.43
2019-05-09T12:44:18.812Z,3.83
2019-05-09T12:46:48.966Z,4.03
2019-05-09T12:49:20.288Z,1.70
2019-05-09T12:51:49.983Z,1.70
2019-05-09T12:54:19.616Z,3.80
2019-05-09T12:56:48.915Z,1.27
2019-05-09T12:59:18.851Z,2.17
2019-05-09T13:01:49.196Z,2.20
2019-05-09T13:04:18.859Z,1.93
2019-05-09T13:06:48.835Z,1.13
2019-05-09T13:09:18.416Z,3.13
2019-05-09T13:11:48.482Z,1.30
2019-05-09T13:14:19.249Z,1.20
2019-05-09T13:17:20.563Z,6.93
2019-05-09T13:19:49.823Z,1.83
2019-05-09T13:22:19.109Z,3.13
2019-05-09T13:24:48.718Z,1.50
2019-05-09T13:27:19.024Z,5.93
2019-05-09T13:29:49.572Z,1.77
2019-05-09T13:32:19.093Z,2.20
2019-05-09T13:34:48.763Z,2.60
2019-05-09T13:37:18.960Z,1.43
2019-05-09T13:39:48.713Z,0.73
2019-05-09T13:42:19.463Z,2.90
2019-05-09T13:44:49.704Z,1.13
2019-05-09T13:47:19.070Z,4.03
2019-05-09T13:49:50.089Z,2.77
2019-05-09T13:52:19.602Z,3.63
2019-05-09T13:54:48.879Z,1.53
2019-05-09T13:57:18.951Z,1.77
2019-05-09T13:59:48.896Z,1.70
2019-05-09T14:02:19.010Z,2.97
2019-05-09T14:04:48.960Z,1.83
2019-05-09T14:07:19.428Z,1.60
2019-05-09T14:09:48.965Z,1.67
2019-05-09T14:12:19.016Z,1.23
2019-05-09T14:14:48.730Z,2.77
2019-05-09T14:17:19.019Z,1.07
2019-05-09T14:19:51.123Z,1.43
2019-05-09T14:22:20.144Z,3.33
2019-05-09T14:24:49.560Z,2.50
2019-05-09T14:27:18.969Z,1.00
2019-05-09T14:29:49.703Z,3.27
2019-05-09T14:32:19.560Z,0.90
2019-05-09T14:34:48.907Z,2.83
2019-05-09T14:37:18.580Z,1.90
2019-05-09T14:39:57.911Z,4.27
2019-05-09T14:42:19.459Z,1.17
2019-05-09T14:44:49.926Z,1.77
2019-05-09T14:47:19.519Z,1.80
2019-05-09T14:49:50.295Z,3.73
2019-05-09T14:52:20.399Z,3.67
2019-05-09T14:54:51.223Z,1.60
2019-05-09T14:57:20.741Z,6.37
2019-05-09T14:59:50.215Z,1.20
2019-05-09T15:02:19.486Z,1.87
2019-05-09T15:04:48.890Z,0.90
2019-05-09T15:07:19.457Z,2.47
2019-05-09T15:09:49.495Z,2.10
2019-05-09T15:12:18.807Z,1.97
2019-05-09T15:14:48.454Z,3.57
2019-05-09T15:17:18.661Z,3.67
2019-05-09T15:19:57.483Z,1.17
2019-05-09T15:22:19.506Z,2.10
2019-05-09T15:24:49.127Z,2.30
2019-05-09T15:27:18.509Z,1.43
2019-05-09T15:29:48.608Z,2.80
2019-05-09T15:32:18.507Z,3.30
2019-05-09T15:34:47.890Z,1.77
2019-05-09T15:37:18.608Z,0.80
2019-05-09T15:39:48.516Z,4.50
2019-05-09T15:42:18.432Z,2.23
2019-05-09T15:44:47.913Z,1.30
2019-05-09T15:47:24.514Z,3.70
2019-05-09T15:49:54.350Z,1.03
2019-05-09T15:52:23.676Z,1.63
2019-05-09T15:54:53.412Z,1.33
2019-05-09T15:57:22.744Z,1.87
2019-05-09T15:59:52.704Z,2.50
2019-05-09T16:02:22.625Z,2.87
2019-05-09T16:04:52.155Z,1.37
2019-05-09T16:07:21.900Z,2.77
2019-05-09T16:09:51.239Z,1.67
2019-05-09T16:12:20.652Z,1.63
2019-05-09T16:14:50.379Z,2.63
2019-05-09T16:17:19.968Z,2.83
2019-05-09T16:19:49.603Z,3.83
2019-05-09T16:22:19.201Z,2.67
2019-05-09T16:24:49.195Z,4.50
2019-05-09T16:27:18.480Z,1.60
2019-05-09T16:29:48.690Z,3.63
2019-05-09T16:32:18.393Z,1.97
2019-05-09T16:34:47.933Z,10.17
2019-05-09T16:37:17.233Z,4.70
2019-05-09T16:39:47.654Z,1.50
2019-05-09T16:42:17.066Z,1.30
2019-05-09T16:44:48.119Z,2.27
2019-05-09T16:47:21.958Z,4.97
2019-05-09T16:49:49.491Z,3.87
2019-05-09T16:52:18.860Z,3.53
2019-05-09T16:54:50.293Z,2.27
2019-05-09T16:57:19.983Z,3.23
2019-05-09T16:59:49.512Z,3.53
2019-05-09T17:02:24.695Z,5.27
2019-05-09T17:04:50.448Z,2.97
2019-05-09T17:07:19.819Z,6.00
2019-05-09T17:09:49.400Z,5.23
2019-05-09T17:12:18.747Z,6.20
2019-05-09T17:14:48.145Z,2.80
2019-05-09T17:17:17.993Z,4.37
2019-05-09T17:19:48.059Z,3.00
2019-05-09T17:22:36.262Z,5.13
2019-05-09T17:25:07.944Z,3.73
2019-05-09T17:27:38.707Z,3.20
2019-05-09T17:30:08.658Z,3.97
2019-05-09T17:32:38.398Z,3.97
2019-05-09T17:35:08.310Z,4.47
2019-05-09T17:37:38.159Z,4.37
2019-05-09T17:40:07.960Z,2.73
2019-05-09T17:42:38.196Z,7.70
2019-05-09T17:45:08.480Z,3.47
2019-05-09T17:47:37.998Z,5.53
2019-05-09T17:50:08.261Z,2.67
2019-05-09T17:52:37.870Z,3.77
2019-05-09T17:55:07.481Z,3.77
2019-05-09T17:57:38.807Z,3.47
2019-05-09T18:00:09.960Z,2.97
2019-05-09T18:02:39.530Z,4.03
2019-05-09T18:05:08.829Z,2.17
2019-05-09T18:07:38.283Z,1.77
2019-05-09T18:10:08.087Z,3.17
2019-05-09T18:12:38.420Z,5.10
2019-05-09T18:15:08.650Z,4.13
2019-05-09T18:17:38.370Z,6.30
2019-05-09T18:20:08.607Z,6.30
2019-05-09T18:22:38.178Z,6.20
2019-05-09T18:25:09.412Z,11.20
2019-05-09T18:27:38.768Z,8.00
2019-05-09T18:30:09.163Z,4.33
2019-05-09T18:32:47.694Z,8.10
2019-05-09T18:35:19.682Z,5.60
2019-05-09T18:37:49.451Z,7.90
2019-05-09T18:40:19.275Z,3.30
2019-05-09T18:42:48.819Z,3.80
2019-05-09T18:45:20.200Z,4.33
2019-05-09T18:47:49.784Z,1.37
2019-05-09T18:50:19.146Z,3.33
2019-05-09T18:52:48.557Z,3.77
2019-05-09T18:55:19.725Z,2.07
2019-05-09T18:57:49.495Z,1.30
2019-05-09T19:00:21.358Z,1.80
2019-05-09T19:02:50.809Z,1.80
2019-05-09T19:05:20.628Z,1.03
2019-05-09T19:07:50.303Z,2.57
2019-05-09T19:10:19.666Z,2.07
2019-05-09T19:12:48.975Z,2.47
2019-05-09T19:15:37.294Z,2.83
2019-05-09T19:18:28.644Z,4.90
2019-05-09T19:21:04.180Z,5.10
2019-05-09T19:23:34.158Z,5.47
2019-05-09T19:26:06.164Z,5.83
2019-05-09T19:28:36.839Z,6.07
2019-05-09T19:31:06.155Z,4.37
2019-05-09T19:33:37.488Z,6.53
2019-05-09T19:36:06.778Z,3.80
2019-05-09T19:38:37.084Z,5.13
2019-05-09T19:41:06.724Z,4.37
2019-05-09T19:43:36.310Z,6.73
2019-05-09T19:46:05.884Z,6.10
2019-05-09T19:48:35.152Z,6.37
2019-05-09T19:51:04.447Z,5.00
2019-05-09T19:53:34.072Z,5.30
2019-05-09T19:56:03.370Z,5.37
2019-05-09T19:58:32.914Z,5.67
2019-05-09T20:01:02.325Z,6.63
2019-05-09T20:03:31.730Z,7.30
2019-05-09T20:06:01.157Z,7.40
2019-05-09T20:08:30.436Z,5.90
2019-05-09T20:11:06.426Z,7.67
2019-05-09T20:13:41.804Z,7.50
2019-05-09T20:16:11.373Z,6.63
2019-05-09T20:18:40.809Z,9.23
2019-05-09T20:21:10.672Z,8.00
2019-05-09T20:23:40.637Z,9.30
2019-05-09T20:26:10.247Z,4.93
2019-05-09T20:28:39.648Z,7.40
2019-05-09T20:31:09.432Z,7.47
2019-05-09T20:33:39.420Z,7.73
2019-05-09T20:36:09.204Z,7.60
2019-05-09T20:38:38.783Z,9.07
2019-05-09T20:41:08.293Z,5.93
2019-05-09T20:43:38.123Z,6.37
2019-05-09T20:46:10.845Z,5.87
2019-05-09T20:48:40.967Z,8.67
2019-05-09T20:51:10.670Z,7.37
2019-05-09T20:53:40.253Z,8.17
2019-05-09T20:56:09.775Z,8.37
2019-05-09T20:58:39.277Z,11.93
2019-05-09T21:01:08.749Z,11.23
2019-05-09T21:03:38.303Z,10.40
2019-05-09T21:06:07.857Z,12.00
2019-05-09T21:08:37.767Z,13.67
2019-05-09T21:11:07.268Z,12.90
2019-05-09T21:13:48.126Z,13.97
2019-05-09T21:16:08.679Z,16.87
2019-05-09T21:18:38.665Z,15.83
2019-05-09T21:21:08.814Z,11.70
2019-05-09T21:23:39.291Z,13.43
2019-05-09T21:26:09.375Z,12.73
2019-05-09T21:28:39.083Z,10.97
2019-05-09T21:31:09.435Z,10.47
2019-05-09T21:33:39.769Z,15.00
2019-05-09T21:36:11.350Z,10.73
2019-05-09T21:38:41.345Z,9.33
2019-05-09T21:41:11.777Z,6.40
2019-05-09T21:43:41.313Z,7.77
2019-05-09T21:46:12.581Z,15.57
2019-05-09T21:48:41.970Z,12.63
2019-05-09T21:51:11.748Z,6.47
2019-05-09T21:53:41.734Z,7.20
2019-05-09T21:56:11.405Z,6.73
2019-05-09T21:58:40.764Z,10.17
2019-05-09T22:01:14.579Z,10.83
2019-05-09T22:03:44.072Z,12.67
2019-05-09T22:06:14.086Z,12.03
2019-05-09T22:08:43.914Z,10.53
2019-05-09T22:14:02.594Z,13.73
2019-05-09T22:16:32.112Z,12.87
2019-05-09T22:19:01.818Z,12.07
2019-05-09T22:21:31.432Z,10.30
2019-05-09T22:24:00.830Z,12.40
2019-05-09T22:26:30.684Z,13.30
2019-05-09T22:28:59.971Z,10.93
2019-05-09T22:31:29.664Z,10.00
2019-05-09T22:33:59.130Z,10.37
2019-05-09T22:36:28.764Z,17.37
2019-05-09T22:38:58.059Z,10.10
2019-05-09T22:41:28.087Z,12.70
2019-05-09T22:43:58.089Z,12.03
2019-05-09T22:46:27.410Z,9.77
2019-05-09T22:48:56.745Z,13.27
2019-05-09T22:51:26.511Z,15.07
2019-05-09T22:54:11.157Z,11.93
2019-05-09T22:56:27.239Z,15.37
2019-05-09T22:58:56.538Z,10.13
2019-05-09T23:01:25.975Z,9.80
2019-05-09T23:03:55.587Z,10.17
2019-05-09T23:06:25.155Z,9.90
2019-05-09T23:08:54.616Z,15.20
2019-05-09T23:11:24.237Z,12.23
2019-05-09T23:13:53.560Z,14.03
2019-05-09T23:16:25.264Z,14.73
2019-05-09T23:18:54.775Z,11.47
2019-05-09T23:21:26.342Z,11.07
2019-05-09T23:23:58.758Z,12.90
2019-05-09T23:26:28.057Z,13.23
2019-05-09T23:28:57.351Z,9.17
2019-05-09T23:31:41.961Z,14.80
2019-05-09T23:34:11.836Z,11.07
2019-05-09T23:36:41.439Z,9.63
2019-05-09T23:39:25.631Z,7.57
2019-05-09T23:41:55.044Z,10.70
2019-05-09T23:44:24.604Z,11.17
2019-05-09T23:46:54.476Z,11.67
2019-05-09T23:49:24.518Z,11.47
2019-05-09T23:51:54.059Z,11.30
2019-05-09T23:54:47.021Z,9.63
2019-05-09T23:57:30.680Z,12.97
